Terminal Aerodrome Forecast
Issued by NWS

Home | Current Version | Previous Version | Text Only | Print | Product List | Glossary On
Versions: 1 2 3 4 5 6 7 8 9 10 11 12 13 14
000
FTUS44 KOUN 181120
TAFGAG
TAF
KGAG 181120Z 1812/1912 16009KT P6SM BKN030
     FM181600 19016G23KT P6SM SCT035
     FM190300 17013KT P6SM SCT250=

USA.gov is the U.S. government's official web portal to all federal, state and local government web resources and services.